sensor_id;sensor_type;location;lat;lon;timestamp;temperature;humidity
23813;DHT22;12087;45.190;5.688;2023-04-07T00:02:49;10.10;73.00
23813;DHT22;12087;45.190;5.688;2023-04-07T00:08:11;10.00;74.60
23813;DHT22;12087;45.190;5.688;2023-04-07T00:13:33;9.90;75.70
23813;DHT22;12087;45.190;5.688;2023-04-07T00:18:58;9.90;76.40
23813;DHT22;12087;45.190;5.688;2023-04-07T00:24:21;9.90;76.00
23813;DHT22;12087;45.190;5.688;2023-04-07T00:29:43;10.00;76.50
23813;DHT22;12087;45.190;5.688;2023-04-07T00:35:08;10.00;76.30
23813;DHT22;12087;45.190;5.688;2023-04-07T00:40:31;10.10;76.20
23813;DHT22;12087;45.190;5.688;2023-04-07T00:45:54;10.10;76.30
23813;DHT22;12087;45.190;5.688;2023-04-07T00:51:20;10.00;76.80
23813;DHT22;12087;45.190;5.688;2023-04-07T00:56:42;10.10;77.30
23813;DHT22;12087;45.190;5.688;2023-04-07T01:02:09;10.00;77.50
23813;DHT22;12087;45.190;5.688;2023-04-07T01:07:36;9.90;79.00
23813;DHT22;12087;45.190;5.688;2023-04-07T01:13:05;9.70;80.30
23813;DHT22;12087;45.190;5.688;2023-04-07T01:18:31;9.50;81.20
23813;DHT22;12087;45.190;5.688;2023-04-07T01:24:11;9.30;83.00
23813;DHT22;12087;45.190;5.688;2023-04-07T01:29:41;9.30;82.40
23813;DHT22;12087;45.190;5.688;2023-04-07T01:35:10;9.30;83.30
23813;DHT22;12087;45.190;5.688;2023-04-07T01:40:34;9.10;84.70
23813;DHT22;12087;45.190;5.688;2023-04-07T01:45:58;9.00;86.30
23813;DHT22;12087;45.190;5.688;2023-04-07T01:51:23;9.00;85.60
23813;DHT22;12087;45.190;5.688;2023-04-07T01:56:47;9.00;86.40
23813;DHT22;12087;45.190;5.688;2023-04-07T02:02:10;8.90;87.50
23813;DHT22;12087;45.190;5.688;2023-04-07T02:07:40;8.90;87.60
23813;DHT22;12087;45.190;5.688;2023-04-07T02:13:04;9.00;87.50
23813;DHT22;12087;45.190;5.688;2023-04-07T02:18:30;9.00;87.80
23813;DHT22;12087;45.190;5.688;2023-04-07T02:23:53;8.90;88.70
23813;DHT22;12087;45.190;5.688;2023-04-07T02:29:15;8.80;89.00
23813;DHT22;12087;45.190;5.688;2023-04-07T02:34:38;8.70;90.80
23813;DHT22;12087;45.190;5.688;2023-04-07T02:40:01;8.70;90.90
23813;DHT22;12087;45.190;5.688;2023-04-07T02:45:24;8.50;91.90
23813;DHT22;12087;45.190;5.688;2023-04-07T02:50:47;8.60;92.50
23813;DHT22;12087;45.190;5.688;2023-04-07T02:56:09;8.60;92.60
23813;DHT22;12087;45.190;5.688;2023-04-07T03:01:31;8.60;92.50
23813;DHT22;12087;45.190;5.688;2023-04-07T03:06:57;8.70;91.70
23813;DHT22;12087;45.190;5.688;2023-04-07T03:12:19;8.70;91.60
23813;DHT22;12087;45.190;5.688;2023-04-07T03:17:41;8.70;91.10
23813;DHT22;12087;45.190;5.688;2023-04-07T03:23:05;8.70;91.40
23813;DHT22;12087;45.190;5.688;2023-04-07T03:28:27;8.60;91.40
23813;DHT22;12087;45.190;5.688;2023-04-07T03:33:49;8.60;92.10
23813;DHT22;12087;45.190;5.688;2023-04-07T03:39:13;8.60;92.20
23813;DHT22;12087;45.190;5.688;2023-04-07T03:44:36;8.60;92.40
23813;DHT22;12087;45.190;5.688;2023-04-07T03:49:58;8.60;92.40
23813;DHT22;12087;45.190;5.688;2023-04-07T03:55:21;8.60;92.30
23813;DHT22;12087;45.190;5.688;2023-04-07T04:00:44;8.50;92.00
23813;DHT22;12087;45.190;5.688;2023-04-07T04:06:06;8.60;92.10
23813;DHT22;12087;45.190;5.688;2023-04-07T04:11:30;8.50;91.60
23813;DHT22;12087;45.190;5.688;2023-04-07T04:16:53;8.50;91.70
23813;DHT22;12087;45.190;5.688;2023-04-07T04:22:15;8.60;92.20
23813;DHT22;12087;45.190;5.688;2023-04-07T04:27:39;8.60;91.90
23813;DHT22;12087;45.190;5.688;2023-04-07T04:33:01;8.60;91.70
23813;DHT22;12087;45.190;5.688;2023-04-07T04:38:23;8.50;92.10
23813;DHT22;12087;45.190;5.688;2023-04-07T04:43:47;8.50;92.30
23813;DHT22;12087;45.190;5.688;2023-04-07T04:49:09;8.50;92.50
23813;DHT22;12087;45.190;5.688;2023-04-07T04:54:31;8.50;93.20
23813;DHT22;12087;45.190;5.688;2023-04-07T04:59:55;8.50;98.20
23813;DHT22;12087;45.190;5.688;2023-04-07T05:05:17;8.40;99.90
23813;DHT22;12087;45.190;5.688;2023-04-07T05:10:40;8.30;99.90
23813;DHT22;12087;45.190;5.688;2023-04-07T05:16:04;8.20;99.90
23813;DHT22;12087;45.190;5.688;2023-04-07T05:21:26;8.10;99.90
23813;DHT22;12087;45.190;5.688;2023-04-07T05:26:48;8.10;99.90
23813;DHT22;12087;45.190;5.688;2023-04-07T05:32:12;8.10;99.90
23813;DHT22;12087;45.190;5.688;2023-04-07T05:37:34;8.10;99.90
23813;DHT22;12087;45.190;5.688;2023-04-07T05:42:56;8.10;99.90
23813;DHT22;12087;45.190;5.688;2023-04-07T05:48:20;8.20;99.90
23813;DHT22;12087;45.190;5.688;2023-04-07T05:53:42;8.30;99.90
23813;DHT22;12087;45.190;5.688;2023-04-07T05:59:04;8.30;99.90
23813;DHT22;12087;45.190;5.688;2023-04-07T06:04:28;8.40;99.90
23813;DHT22;12087;45.190;5.688;2023-04-07T06:09:50;8.40;99.90
23813;DHT22;12087;45.190;5.688;2023-04-07T06:15:12;8.40;99.90
23813;DHT22;12087;45.190;5.688;2023-04-07T06:20:36;8.40;99.90
23813;DHT22;12087;45.190;5.688;2023-04-07T06:25:58;8.40;99.90
23813;DHT22;12087;45.190;5.688;2023-04-07T06:31:21;8.40;99.90
23813;DHT22;12087;45.190;5.688;2023-04-07T06:36:44;8.40;99.90
23813;DHT22;12087;45.190;5.688;2023-04-07T06:42:07;8.50;99.90
23813;DHT22;12087;45.190;5.688;2023-04-07T06:47:29;8.60;99.90
23813;DHT22;12087;45.190;5.688;2023-04-07T06:52:53;8.70;99.90
23813;DHT22;12087;45.190;5.688;2023-04-07T06:58:15;8.80;99.90
23813;DHT22;12087;45.190;5.688;2023-04-07T07:03:37;8.90;99.90
23813;DHT22;12087;45.190;5.688;2023-04-07T07:09:01;9.00;99.90
23813;DHT22;12087;45.190;5.688;2023-04-07T07:14:23;9.10;99.90
23813;DHT22;12087;45.190;5.688;2023-04-07T07:19:45;9.00;99.90
23813;DHT22;12087;45.190;5.688;2023-04-07T07:25:09;9.10;99.90
23813;DHT22;12087;45.190;5.688;2023-04-07T07:30:32;9.10;99.90
23813;DHT22;12087;45.190;5.688;2023-04-07T07:35:54;9.10;99.90
23813;DHT22;12087;45.190;5.688;2023-04-07T07:41:17;9.20;99.90
23813;DHT22;12087;45.190;5.688;2023-04-07T07:46:40;9.30;99.90
23813;DHT22;12087;45.190;5.688;2023-04-07T07:52:03;9.30;99.90
23813;DHT22;12087;45.190;5.688;2023-04-07T07:57:26;9.30;99.90
23813;DHT22;12087;45.190;5.688;2023-04-07T08:02:50;9.10;99.90
23813;DHT22;12087;45.190;5.688;2023-04-07T08:08:12;8.90;99.90
23813;DHT22;12087;45.190;5.688;2023-04-07T08:13:36;8.80;99.90
23813;DHT22;12087;45.190;5.688;2023-04-07T08:18:59;8.80;99.90
23813;DHT22;12087;45.190;5.688;2023-04-07T08:24:21;8.80;99.90
23813;DHT22;12087;45.190;5.688;2023-04-07T08:29:45;8.90;99.90
23813;DHT22;12087;45.190;5.688;2023-04-07T08:35:07;8.90;99.90
23813;DHT22;12087;45.190;5.688;2023-04-07T08:40:30;9.00;99.90
23813;DHT22;12087;45.190;5.688;2023-04-07T08:45:56;9.00;99.90
23813;DHT22;12087;45.190;5.688;2023-04-07T08:51:26;8.90;99.90
23813;DHT22;12087;45.190;5.688;2023-04-07T08:56:48;9.00;99.90
23813;DHT22;12087;45.190;5.688;2023-04-07T09:02:13;9.00;99.90
23813;DHT22;12087;45.190;5.688;2023-04-07T09:07:37;9.00;99.90
23813;DHT22;12087;45.190;5.688;2023-04-07T09:12:59;9.10;99.90
23813;DHT22;12087;45.190;5.688;2023-04-07T09:18:23;9.10;99.90
23813;DHT22;12087;45.190;5.688;2023-04-07T09:23:46;9.20;99.90
23813;DHT22;12087;45.190;5.688;2023-04-07T09:29:08;9.30;99.90
23813;DHT22;12087;45.190;5.688;2023-04-07T09:34:33;9.30;99.90
23813;DHT22;12087;45.190;5.688;2023-04-07T09:39:55;9.30;99.90
23813;DHT22;12087;45.190;5.688;2023-04-07T09:45:23;9.30;99.90
23813;DHT22;12087;45.190;5.688;2023-04-07T09:50:47;9.30;99.90
23813;DHT22;12087;45.190;5.688;2023-04-07T09:56:11;9.30;99.90
23813;DHT22;12087;45.190;5.688;2023-04-07T10:01:34;9.30;99.90
23813;DHT22;12087;45.190;5.688;2023-04-07T10:06:58;9.40;99.90
23813;DHT22;12087;45.190;5.688;2023-04-07T10:12:21;9.60;99.90
23813;DHT22;12087;45.190;5.688;2023-04-07T10:17:45;10.10;99.90
23813;DHT22;12087;45.190;5.688;2023-04-07T10:23:16;10.60;99.90
23813;DHT22;12087;45.190;5.688;2023-04-07T10:28:41;10.90;99.90
23813;DHT22;12087;45.190;5.688;2023-04-07T10:34:04;11.20;99.90
23813;DHT22;12087;45.190;5.688;2023-04-07T10:39:28;11.50;99.90
23813;DHT22;12087;45.190;5.688;2023-04-07T10:44:51;11.80;99.90
23813;DHT22;12087;45.190;5.688;2023-04-07T10:50:22;12.10;99.90
23813;DHT22;12087;45.190;5.688;2023-04-07T10:55:53;12.30;99.90
23813;DHT22;12087;45.190;5.688;2023-04-07T11:01:19;12.50;99.90
23813;DHT22;12087;45.190;5.688;2023-04-07T11:06:46;12.90;99.90
23813;DHT22;12087;45.190;5.688;2023-04-07T11:12:21;13.30;99.90
23813;DHT22;12087;45.190;5.688;2023-04-07T11:17:43;13.50;99.90
23813;DHT22;12087;45.190;5.688;2023-04-07T11:23:05;13.70;99.90
23813;DHT22;12087;45.190;5.688;2023-04-07T11:28:30;13.90;99.90
23813;DHT22;12087;45.190;5.688;2023-04-07T11:33:53;14.20;99.90
23813;DHT22;12087;45.190;5.688;2023-04-07T11:39:19;14.40;99.90
23813;DHT22;12087;45.190;5.688;2023-04-07T11:44:45;14.60;99.90
23813;DHT22;12087;45.190;5.688;2023-04-07T11:50:08;14.90;99.90
23813;DHT22;12087;45.190;5.688;2023-04-07T11:55:31;15.20;99.90
23813;DHT22;12087;45.190;5.688;2023-04-07T12:00:55;15.30;99.90
23813;DHT22;12087;45.190;5.688;2023-04-07T12:06:26;15.40;99.90
23813;DHT22;12087;45.190;5.688;2023-04-07T12:11:50;15.00;99.90
23813;DHT22;12087;45.190;5.688;2023-04-07T12:17:21;14.70;99.90
23813;DHT22;12087;45.190;5.688;2023-04-07T12:22:44;14.30;99.90
23813;DHT22;12087;45.190;5.688;2023-04-07T12:28:07;14.10;99.90
23813;DHT22;12087;45.190;5.688;2023-04-07T12:33:30;14.10;99.90
23813;DHT22;12087;45.190;5.688;2023-04-07T12:38:52;14.00;99.90
23813;DHT22;12087;45.190;5.688;2023-04-07T12:44:15;13.80;99.90
23813;DHT22;12087;45.190;5.688;2023-04-07T12:49:39;13.70;99.90
23813;DHT22;12087;45.190;5.688;2023-04-07T12:55:01;14.50;99.90
23813;DHT22;12087;45.190;5.688;2023-04-07T13:00:23;15.20;99.70
23813;DHT22;12087;45.190;5.688;2023-04-07T13:05:47;15.90;98.50
23813;DHT22;12087;45.190;5.688;2023-04-07T13:11:09;16.10;96.30
23813;DHT22;12087;45.190;5.688;2023-04-07T13:16:32;16.40;94.60
23813;DHT22;12087;45.190;5.688;2023-04-07T13:21:55;16.80;92.40
23813;DHT22;12087;45.190;5.688;2023-04-07T13:27:17;16.70;91.60
23813;DHT22;12087;45.190;5.688;2023-04-07T13:32:40;16.30;91.60
23813;DHT22;12087;45.190;5.688;2023-04-07T13:38:03;15.40;96.80
23813;DHT22;12087;45.190;5.688;2023-04-07T13:43:25;14.20;99.90
23813;DHT22;12087;45.190;5.688;2023-04-07T13:48:50;13.00;99.90
23813;DHT22;12087;45.190;5.688;2023-04-07T13:54:14;12.50;99.90
23813;DHT22;12087;45.190;5.688;2023-04-07T13:59:36;12.20;99.90
23813;DHT22;12087;45.190;5.688;2023-04-07T14:04:59;12.00;99.90
23813;DHT22;12087;45.190;5.688;2023-04-07T14:10:24;12.60;99.90
23813;DHT22;12087;45.190;5.688;2023-04-07T14:15:46;13.30;99.90
23813;DHT22;12087;45.190;5.688;2023-04-07T14:21:09;13.20;99.90
23813;DHT22;12087;45.190;5.688;2023-04-07T14:26:33;13.10;99.90
23813;DHT22;12087;45.190;5.688;2023-04-07T14:31:55;13.00;99.90
23813;DHT22;12087;45.190;5.688;2023-04-07T14:37:17;13.10;99.90
23813;DHT22;12087;45.190;5.688;2023-04-07T14:42:45;13.10;99.90
23813;DHT22;12087;45.190;5.688;2023-04-07T14:48:07;13.30;99.90
23813;DHT22;12087;45.190;5.688;2023-04-07T14:53:29;13.50;99.90
23813;DHT22;12087;45.190;5.688;2023-04-07T14:58:53;13.80;99.90
23813;DHT22;12087;45.190;5.688;2023-04-07T15:04:15;13.90;99.90
23813;DHT22;12087;45.190;5.688;2023-04-07T15:09:37;14.00;99.90
23813;DHT22;12087;45.190;5.688;2023-04-07T15:15:01;14.00;99.90
23813;DHT22;12087;45.190;5.688;2023-04-07T15:20:23;13.90;99.90
23813;DHT22;12087;45.190;5.688;2023-04-07T15:25:46;13.90;99.90
23813;DHT22;12087;45.190;5.688;2023-04-07T15:31:12;14.00;98.50
23813;DHT22;12087;45.190;5.688;2023-04-07T15:36:35;14.10;96.80
23813;DHT22;12087;45.190;5.688;2023-04-07T15:41:57;14.00;96.30
23813;DHT22;12087;45.190;5.688;2023-04-07T15:47:20;14.00;94.90
23813;DHT22;12087;45.190;5.688;2023-04-07T15:52:43;14.10;95.10
23813;DHT22;12087;45.190;5.688;2023-04-07T15:58:05;14.20;95.90
23813;DHT22;12087;45.190;5.688;2023-04-07T16:03:29;14.10;93.60
23813;DHT22;12087;45.190;5.688;2023-04-07T16:08:51;14.00;93.80
23813;DHT22;12087;45.190;5.688;2023-04-07T16:14:15;13.90;94.60
23813;DHT22;12087;45.190;5.688;2023-04-07T16:19:39;13.80;93.50
23813;DHT22;12087;45.190;5.688;2023-04-07T16:25:01;13.70;95.10
23813;DHT22;12087;45.190;5.688;2023-04-07T16:30:24;13.70;96.60
23813;DHT22;12087;45.190;5.688;2023-04-07T16:35:47;13.60;97.40
23813;DHT22;12087;45.190;5.688;2023-04-07T16:41:10;13.50;97.50
23813;DHT22;12087;45.190;5.688;2023-04-07T16:46:32;13.40;99.20
23813;DHT22;12087;45.190;5.688;2023-04-07T16:51:56;13.30;99.90
23813;DHT22;12087;45.190;5.688;2023-04-07T16:57:19;13.10;99.90
23813;DHT22;12087;45.190;5.688;2023-04-07T17:02:41;12.90;99.90
23813;DHT22;12087;45.190;5.688;2023-04-07T17:08:05;12.90;99.90
23813;DHT22;12087;45.190;5.688;2023-04-07T17:13:27;12.80;99.90
23813;DHT22;12087;45.190;5.688;2023-04-07T17:18:50;12.60;99.90
23813;DHT22;12087;45.190;5.688;2023-04-07T17:24:15;12.50;99.90
23813;DHT22;12087;45.190;5.688;2023-04-07T17:29:37;12.40;99.90
23813;DHT22;12087;45.190;5.688;2023-04-07T17:34:59;12.40;99.90
23813;DHT22;12087;45.190;5.688;2023-04-07T17:40:23;12.20;99.90
23813;DHT22;12087;45.190;5.688;2023-04-07T17:45:45;12.10;99.90
23813;DHT22;12087;45.190;5.688;2023-04-07T17:51:08;12.10;99.90
23813;DHT22;12087;45.190;5.688;2023-04-07T17:56:31;12.00;99.90
23813;DHT22;12087;45.190;5.688;2023-04-07T18:01:53;12.00;99.90
23813;DHT22;12087;45.190;5.688;2023-04-07T18:07:16;11.90;99.90
23813;DHT22;12087;45.190;5.688;2023-04-07T18:12:40;11.80;99.90
23813;DHT22;12087;45.190;5.688;2023-04-07T18:18:02;11.60;99.90
23813;DHT22;12087;45.190;5.688;2023-04-07T18:23:24;11.40;99.90
23813;DHT22;12087;45.190;5.688;2023-04-07T18:28:48;11.30;99.90
23813;DHT22;12087;45.190;5.688;2023-04-07T18:34:10;11.30;99.90
23813;DHT22;12087;45.190;5.688;2023-04-07T18:39:32;11.10;99.90
23813;DHT22;12087;45.190;5.688;2023-04-07T18:44:56;11.00;99.90
23813;DHT22;12087;45.190;5.688;2023-04-07T18:50:18;10.90;99.90
23813;DHT22;12087;45.190;5.688;2023-04-07T18:55:41;10.80;99.90
23813;DHT22;12087;45.190;5.688;2023-04-07T19:01:04;10.60;99.90
23813;DHT22;12087;45.190;5.688;2023-04-07T19:06:27;10.50;99.90
23813;DHT22;12087;45.190;5.688;2023-04-07T19:11:51;10.50;99.90
23813;DHT22;12087;45.190;5.688;2023-04-07T19:17:15;10.40;99.90
23813;DHT22;12087;45.190;5.688;2023-04-07T19:22:38;10.40;99.90
23813;DHT22;12087;45.190;5.688;2023-04-07T19:28:02;10.30;99.90
23813;DHT22;12087;45.190;5.688;2023-04-07T19:33:26;10.30;99.90
23813;DHT22;12087;45.190;5.688;2023-04-07T19:38:48;10.30;99.90
23813;DHT22;12087;45.190;5.688;2023-04-07T19:44:10;10.10;99.90
23813;DHT22;12087;45.190;5.688;2023-04-07T19:49:34;10.00;99.90
23813;DHT22;12087;45.190;5.688;2023-04-07T19:54:57;9.90;99.90
23813;DHT22;12087;45.190;5.688;2023-04-07T20:00:20;9.90;99.90
23813;DHT22;12087;45.190;5.688;2023-04-07T20:05:44;9.80;99.90
23813;DHT22;12087;45.190;5.688;2023-04-07T20:11:06;9.70;99.90
23813;DHT22;12087;45.190;5.688;2023-04-07T20:16:31;9.60;99.90
23813;DHT22;12087;45.190;5.688;2023-04-07T20:21:55;9.60;99.90
23813;DHT22;12087;45.190;5.688;2023-04-07T20:27:17;9.50;99.90
23813;DHT22;12087;45.190;5.688;2023-04-07T20:32:39;9.50;99.90
23813;DHT22;12087;45.190;5.688;2023-04-07T20:38:04;9.40;99.90
23813;DHT22;12087;45.190;5.688;2023-04-07T20:43:27;9.40;99.90
23813;DHT22;12087;45.190;5.688;2023-04-07T20:48:49;9.40;99.90
23813;DHT22;12087;45.190;5.688;2023-04-07T20:54:13;9.40;99.90
23813;DHT22;12087;45.190;5.688;2023-04-07T20:59:36;9.40;99.90
23813;DHT22;12087;45.190;5.688;2023-04-07T21:04:58;9.40;99.90
23813;DHT22;12087;45.190;5.688;2023-04-07T21:10:24;9.30;99.90
23813;DHT22;12087;45.190;5.688;2023-04-07T21:15:47;9.20;99.90
23813;DHT22;12087;45.190;5.688;2023-04-07T21:21:09;9.20;99.90
23813;DHT22;12087;45.190;5.688;2023-04-07T21:26:33;9.10;99.90
23813;DHT22;12087;45.190;5.688;2023-04-07T21:31:55;9.00;99.90
23813;DHT22;12087;45.190;5.688;2023-04-07T21:37:17;8.90;99.90
23813;DHT22;12087;45.190;5.688;2023-04-07T21:42:41;8.80;99.90
23813;DHT22;12087;45.190;5.688;2023-04-07T21:48:04;8.90;99.90
23813;DHT22;12087;45.190;5.688;2023-04-07T21:53:26;8.70;99.90
23813;DHT22;12087;45.190;5.688;2023-04-07T21:58:50;8.60;99.90
23813;DHT22;12087;45.190;5.688;2023-04-07T22:04:12;8.60;99.90
23813;DHT22;12087;45.190;5.688;2023-04-07T22:09:34;8.50;99.90
23813;DHT22;12087;45.190;5.688;2023-04-07T22:14:58;8.50;99.90
23813;DHT22;12087;45.190;5.688;2023-04-07T22:20:20;8.40;99.90
23813;DHT22;12087;45.190;5.688;2023-04-07T22:25:42;8.40;99.90
23813;DHT22;12087;45.190;5.688;2023-04-07T22:31:06;8.30;99.90
23813;DHT22;12087;45.190;5.688;2023-04-07T22:36:28;8.30;99.90
23813;DHT22;12087;45.190;5.688;2023-04-07T22:41:51;8.30;99.90
23813;DHT22;12087;45.190;5.688;2023-04-07T22:47:14;8.20;99.90
23813;DHT22;12087;45.190;5.688;2023-04-07T22:52:36;8.10;99.90
23813;DHT22;12087;45.190;5.688;2023-04-07T22:57:59;8.00;99.90
23813;DHT22;12087;45.190;5.688;2023-04-07T23:03:22;8.00;99.90
23813;DHT22;12087;45.190;5.688;2023-04-07T23:08:45;7.90;99.90
23813;DHT22;12087;45.190;5.688;2023-04-07T23:14:07;7.90;99.90
23813;DHT22;12087;45.190;5.688;2023-04-07T23:19:31;7.80;99.90
23813;DHT22;12087;45.190;5.688;2023-04-07T23:24:53;7.80;99.90
23813;DHT22;12087;45.190;5.688;2023-04-07T23:30:16;7.80;99.90
23813;DHT22;12087;45.190;5.688;2023-04-07T23:35:40;7.70;99.90
23813;DHT22;12087;45.190;5.688;2023-04-07T23:41:02;7.60;99.90
23813;DHT22;12087;45.190;5.688;2023-04-07T23:46:24;7.60;99.90
23813;DHT22;12087;45.190;5.688;2023-04-07T23:51:48;7.60;99.90
23813;DHT22;12087;45.190;5.688;2023-04-07T23:57:10;7.50;99.90
